createdAt,value
2022-10-18T00:00:21.491Z,20.10
2022-10-18T00:02:48.309Z,20.00
2022-10-18T00:05:15.151Z,20.10
2022-10-18T00:07:41.938Z,20.10
2022-10-18T00:10:09.660Z,20.10
2022-10-18T00:12:38.141Z,20.10
2022-10-18T00:15:07.465Z,20.10
2022-10-18T00:17:36.077Z,20.20
2022-10-18T00:20:03.858Z,20.10
2022-10-18T00:22:30.944Z,20.10
2022-10-18T00:24:57.999Z,20.10
2022-10-18T00:27:24.815Z,20.20
2022-10-18T00:29:54.424Z,20.20
2022-10-18T00:32:21.449Z,20.20
2022-10-18T00:34:48.463Z,20.20
2022-10-18T00:37:15.363Z,20.20
2022-10-18T00:39:42.165Z,20.10
2022-10-18T00:42:17.337Z,20.20
2022-10-18T00:44:44.049Z,20.20
2022-10-18T00:47:14.449Z,20.20
2022-10-18T00:49:51.444Z,20.20
2022-10-18T00:52:37.202Z,20.30
2022-10-18T00:55:06.873Z,20.40
2022-10-18T00:57:34.331Z,20.40
2022-10-18T01:00:01.511Z,20.40
2022-10-18T01:02:29.446Z,20.40
2022-10-18T01:04:56.497Z,20.40
2022-10-18T01:07:26.189Z,20.50
2022-10-18T01:10:25.076Z,20.60
2022-10-18T01:13:31.767Z,20.60
2022-10-18T01:16:18.188Z,20.70
2022-10-18T01:19:00.867Z,20.70
2022-10-18T01:21:55.413Z,20.70
2022-10-18T01:24:55.452Z,20.80
2022-10-18T01:28:02.979Z,20.80
2022-10-18T01:30:41.901Z,20.80
2022-10-18T01:33:51.078Z,20.90
2022-10-18T01:36:51.923Z,20.90
2022-10-18T01:39:41.512Z,20.90
2022-10-18T01:42:13.586Z,20.90
2022-10-18T01:44:44.055Z,20.90
2022-10-18T01:47:14.631Z,20.90
2022-10-18T01:49:41.506Z,20.90
2022-10-18T01:52:14.138Z,20.90
2022-10-18T01:54:51.081Z,20.90
2022-10-18T01:57:29.554Z,20.90
2022-10-18T02:00:09.655Z,20.90
2022-10-18T02:03:15.693Z,20.90
2022-10-18T02:05:58.903Z,21.10
2022-10-18T02:08:37.561Z,20.90
2022-10-18T02:11:09.306Z,20.90
2022-10-18T02:13:55.423Z,20.90
2022-10-18T02:16:31.027Z,20.90
2022-10-18T02:19:35.355Z,20.90
2022-10-18T02:22:02.736Z,20.90
2022-10-18T02:24:42.118Z,20.90
2022-10-18T02:27:10.026Z,20.90
2022-10-18T02:29:37.538Z,20.80
2022-10-18T02:32:21.502Z,20.90
2022-10-18T02:35:04.886Z,20.80
2022-10-18T02:37:39.034Z,20.80
2022-10-18T02:40:09.712Z,20.80
2022-10-18T02:42:46.555Z,20.80
2022-10-18T02:45:14.686Z,20.80
2022-10-18T02:47:41.905Z,20.80
2022-10-18T02:50:09.390Z,20.80
2022-10-18T02:52:36.236Z,20.80
2022-10-18T02:55:03.712Z,20.80
2022-10-18T02:57:31.157Z,20.80
2022-10-18T02:59:58.082Z,20.80
2022-10-18T03:02:24.863Z,20.80
2022-10-18T03:04:52.208Z,20.80
2022-10-18T03:07:19.043Z,20.80
2022-10-18T03:09:45.807Z,20.70
2022-10-18T03:12:13.142Z,20.70
2022-10-18T03:14:39.907Z,20.70
2022-10-18T03:17:06.667Z,20.70
2022-10-18T03:19:33.415Z,20.70
2022-10-18T03:22:00.158Z,20.70
2022-10-18T03:24:27.111Z,20.70
2022-10-18T03:26:53.897Z,20.70
2022-10-18T03:29:20.632Z,20.60
2022-10-18T03:31:47.411Z,20.60
2022-10-18T03:34:15.741Z,20.60
2022-10-18T03:36:42.493Z,20.60
2022-10-18T03:39:11.365Z,20.60
2022-10-18T03:41:38.149Z,20.60
2022-10-18T03:44:05.050Z,20.50
2022-10-18T03:46:31.756Z,20.50
2022-10-18T03:48:58.511Z,20.60
2022-10-18T03:51:25.286Z,20.40
2022-10-18T03:53:52.044Z,20.50
2022-10-18T03:56:18.818Z,20.50
2022-10-18T03:58:45.604Z,20.50
2022-10-18T04:01:12.595Z,20.40
2022-10-18T04:03:39.390Z,20.40
2022-10-18T04:06:07.830Z,20.40
2022-10-18T04:08:34.577Z,20.40
2022-10-18T04:11:10.693Z,20.30
2022-10-18T04:13:37.452Z,20.30
2022-10-18T04:16:04.774Z,20.20
2022-10-18T04:18:31.631Z,20.20
2022-10-18T04:20:58.861Z,20.20
2022-10-18T04:23:25.702Z,20.20
2022-10-18T04:25:52.673Z,20.10
2022-10-18T04:28:19.555Z,20.20
2022-10-18T04:30:52.052Z,20.10
2022-10-18T04:33:19.943Z,20.10
2022-10-18T04:35:47.442Z,20.00
2022-10-18T04:38:14.781Z,20.00
2022-10-18T04:40:41.700Z,20.00
2022-10-18T04:43:08.535Z,20.00
2022-10-18T04:45:35.967Z,19.90
2022-10-18T04:48:03.244Z,19.90
2022-10-18T04:50:29.993Z,20.00
2022-10-18T04:52:56.770Z,19.90
2022-10-18T04:55:23.622Z,19.90
2022-10-18T04:57:50.393Z,19.90
2022-10-18T05:00:17.374Z,19.90
2022-10-18T05:02:44.291Z,19.80
2022-10-18T05:05:13.937Z,19.90
2022-10-18T05:07:41.086Z,19.80
2022-10-18T05:10:08.568Z,19.80
2022-10-18T05:12:35.397Z,19.80
2022-10-18T05:15:03.222Z,19.90
2022-10-18T05:17:29.996Z,19.80
2022-10-18T05:19:56.706Z,19.80
2022-10-18T05:22:23.638Z,19.80
2022-10-18T05:24:50.454Z,19.70
2022-10-18T05:27:17.177Z,19.70
2022-10-18T05:29:44.001Z,19.70
2022-10-18T05:32:10.783Z,19.70
2022-10-18T05:34:37.592Z,19.70
2022-10-18T05:37:04.539Z,19.70
2022-10-18T05:39:31.363Z,19.70
2022-10-18T05:41:58.494Z,19.70
2022-10-18T05:44:25.301Z,19.70
2022-10-18T05:46:52.238Z,19.60
2022-10-18T05:49:19.106Z,19.70
2022-10-18T05:51:45.882Z,19.60
2022-10-18T05:54:13.610Z,19.60
2022-10-18T05:56:40.978Z,19.60
2022-10-18T05:59:12.262Z,19.60
2022-10-18T06:01:42.177Z,19.60
2022-10-18T06:04:12.503Z,19.60
2022-10-18T06:06:40.083Z,19.60
2022-10-18T06:09:08.165Z,19.60
2022-10-18T06:11:36.598Z,19.60
2022-10-18T06:14:04.310Z,19.60
2022-10-18T06:16:32.598Z,19.60
2022-10-18T06:19:00.154Z,19.60
2022-10-18T06:21:27.817Z,19.50
2022-10-18T06:23:59.403Z,19.50
2022-10-18T06:26:28.214Z,19.50
2022-10-18T06:28:55.217Z,19.50
2022-10-18T06:31:22.059Z,19.50
2022-10-18T06:33:49.307Z,19.50
2022-10-18T06:36:24.698Z,19.50
2022-10-18T06:38:51.894Z,19.50
2022-10-18T06:41:19.588Z,19.40
2022-10-18T06:43:51.801Z,19.50
2022-10-18T06:46:19.081Z,19.50
2022-10-18T06:48:46.152Z,19.50
2022-10-18T06:51:12.960Z,19.40
2022-10-18T06:53:44.341Z,19.40
2022-10-18T06:56:20.115Z,21.30
2022-10-18T06:58:47.082Z,19.50
2022-10-18T07:01:17.249Z,19.50
2022-10-18T07:03:46.622Z,19.50
2022-10-18T07:06:17.937Z,19.50
2022-10-18T07:08:45.481Z,19.50
2022-10-18T07:11:19.783Z,19.50
2022-10-18T07:13:46.776Z,19.50
2022-10-18T07:16:18.732Z,19.50
2022-10-18T07:18:51.598Z,19.50
2022-10-18T07:21:24.723Z,19.50
2022-10-18T07:23:53.760Z,19.60
2022-10-18T07:26:32.378Z,19.60
2022-10-18T07:29:05.171Z,19.60
2022-10-18T07:31:32.161Z,19.60
2022-10-18T07:33:59.469Z,19.60
2022-10-18T07:36:26.705Z,19.60
2022-10-18T07:38:53.829Z,19.60
2022-10-18T07:41:21.618Z,19.60
2022-10-18T07:43:51.882Z,19.60
2022-10-18T07:46:21.425Z,19.60
2022-10-18T07:48:49.185Z,19.70
2022-10-18T07:51:16.583Z,19.70
2022-10-18T07:53:43.353Z,19.70
2022-10-18T07:56:16.373Z,19.80
2022-10-18T07:58:45.449Z,19.90
2022-10-18T08:01:13.876Z,19.90
2022-10-18T08:03:42.603Z,19.90
2022-10-18T08:06:12.413Z,19.90
2022-10-18T08:08:40.640Z,18.70
2022-10-18T08:11:20.525Z,19.90
2022-10-18T08:13:47.851Z,19.90
2022-10-18T08:16:25.143Z,19.90
2022-10-18T08:18:52.242Z,19.90
2022-10-18T08:21:21.107Z,19.90
2022-10-18T08:23:48.927Z,19.90
2022-10-18T08:26:19.424Z,19.90
2022-10-18T08:28:53.917Z,19.90
2022-10-18T08:31:26.706Z,20.00
2022-10-18T08:33:57.013Z,19.90
2022-10-18T08:36:24.218Z,19.90
2022-10-18T08:38:51.066Z,19.80
2022-10-18T08:41:34.990Z,19.90
2022-10-18T08:44:30.194Z,19.80
2022-10-18T08:47:11.622Z,19.80
2022-10-18T08:49:47.519Z,19.80
2022-10-18T08:52:54.083Z,19.80
2022-10-18T08:55:44.734Z,19.80
2022-10-18T08:58:22.667Z,19.80
2022-10-18T09:01:25.621Z,19.80
2022-10-18T09:04:17.899Z,19.70
2022-10-18T09:07:21.346Z,19.70
2022-10-18T09:10:14.809Z,19.70
2022-10-18T09:13:01.582Z,19.60
2022-10-18T09:15:46.269Z,19.60
2022-10-18T09:18:57.311Z,19.60
2022-10-18T09:21:33.119Z,19.50
2022-10-18T09:24:13.206Z,19.50
2022-10-18T09:26:47.302Z,19.50
2022-10-18T09:29:58.616Z,19.50
2022-10-18T09:32:48.013Z,19.50
2022-10-18T09:35:28.890Z,19.50
2022-10-18T09:38:04.749Z,19.40
2022-10-18T09:40:38.826Z,19.50
2022-10-18T09:43:21.582Z,19.40
2022-10-18T09:45:51.155Z,19.40
2022-10-18T09:48:42.157Z,19.30
2022-10-18T09:51:21.745Z,19.40
2022-10-18T09:54:26.991Z,19.40
2022-10-18T09:57:22.310Z,19.40
2022-10-18T09:59:50.863Z,19.40
2022-10-18T10:02:24.091Z,19.40
2022-10-18T10:04:54.546Z,19.40
2022-10-18T10:07:41.794Z,19.40
2022-10-18T10:10:24.434Z,19.40
2022-10-18T10:13:26.329Z,19.40
2022-10-18T10:16:03.581Z,20.70
2022-10-18T10:18:39.000Z,19.40
2022-10-18T10:21:16.587Z,19.40
2022-10-18T10:23:59.167Z,19.40
2022-10-18T10:26:31.992Z,19.40
2022-10-18T10:28:59.400Z,19.40
2022-10-18T10:31:36.777Z,19.40
2022-10-18T10:34:14.526Z,19.40
2022-10-18T10:36:53.984Z,19.40
2022-10-18T10:39:25.463Z,19.40
2022-10-18T10:42:00.200Z,19.30
2022-10-18T10:44:35.820Z,19.30
2022-10-18T10:47:04.174Z,19.30
2022-10-18T10:49:47.593Z,19.30
2022-10-18T10:52:37.466Z,19.30
2022-10-18T10:55:33.982Z,19.30
2022-10-18T10:58:02.003Z,19.30
2022-10-18T11:00:44.751Z,19.30
2022-10-18T11:03:34.028Z,19.30
2022-10-18T11:06:02.053Z,19.30
2022-10-18T11:08:40.538Z,19.30
2022-10-18T11:11:27.886Z,19.40
2022-10-18T11:14:26.199Z,19.40
2022-10-18T11:17:35.839Z,19.40
2022-10-18T11:20:36.884Z,19.50
2022-10-18T11:23:12.506Z,19.50
2022-10-18T11:25:45.117Z,19.50
2022-10-18T11:28:58.293Z,19.50
2022-10-18T11:31:47.382Z,19.50
2022-10-18T11:34:55.962Z,19.50
2022-10-18T11:37:44.724Z,19.50
2022-10-18T11:40:33.164Z,19.50
2022-10-18T11:43:30.099Z,19.60
2022-10-18T11:46:28.019Z,19.60
2022-10-18T11:49:26.648Z,19.60
2022-10-18T11:52:21.115Z,19.60
2022-10-18T11:55:10.707Z,19.60
2022-10-18T11:57:58.569Z,19.50
2022-10-18T12:01:11.443Z,19.50
2022-10-18T12:04:15.801Z,19.50
2022-10-18T12:06:47.154Z,19.50
2022-10-18T12:09:45.424Z,19.50
2022-10-18T12:12:28.069Z,19.50
2022-10-18T12:15:06.971Z,19.60
2022-10-18T12:17:53.486Z,19.60
2022-10-18T12:20:23.532Z,19.60
2022-10-18T12:23:03.755Z,19.60
2022-10-18T12:25:37.875Z,19.60
2022-10-18T12:28:40.317Z,19.70
2022-10-18T12:31:33.922Z,19.70
2022-10-18T12:34:23.852Z,19.70
2022-10-18T12:37:16.850Z,19.80
2022-10-18T12:40:09.166Z,19.80
2022-10-18T12:42:46.057Z,19.80
2022-10-18T12:45:26.686Z,19.80
2022-10-18T12:47:58.490Z,19.80
2022-10-18T12:50:36.878Z,19.80
2022-10-18T12:53:20.288Z,19.80
2022-10-18T12:55:51.687Z,19.90
2022-10-18T12:58:31.078Z,19.80
2022-10-18T13:01:06.144Z,19.90
2022-10-18T13:03:53.511Z,19.90
2022-10-18T13:06:21.118Z,19.90
2022-10-18T13:08:50.960Z,19.90
2022-10-18T13:11:30.476Z,20.00
2022-10-18T13:15:05.831Z,20.00
2022-10-18T13:17:55.311Z,20.10
2022-10-18T13:20:42.451Z,20.10
2022-10-18T13:23:46.336Z,20.10
2022-10-18T13:26:58.135Z,20.10
2022-10-18T13:30:17.485Z,20.10
2022-10-18T13:33:22.316Z,20.10
2022-10-18T13:35:54.783Z,20.10
2022-10-18T13:38:32.902Z,20.10
2022-10-18T13:41:13.953Z,20.20
2022-10-18T13:43:52.982Z,20.20
2022-10-18T13:46:33.347Z,20.20
2022-10-18T13:49:40.808Z,20.20
2022-10-18T13:52:46.088Z,20.30
2022-10-18T13:55:40.054Z,20.30
2022-10-18T13:58:24.977Z,20.30
2022-10-18T14:01:24.443Z,20.30
2022-10-18T14:04:39.757Z,20.40
2022-10-18T14:07:10.213Z,20.40
2022-10-18T14:09:56.093Z,20.40
2022-10-18T14:12:56.514Z,20.40
2022-10-18T14:15:33.854Z,20.40
2022-10-18T14:18:31.770Z,20.40
2022-10-18T14:21:21.101Z,20.40
2022-10-18T14:23:50.455Z,20.40
2022-10-18T14:26:20.566Z,20.40
2022-10-18T14:29:05.918Z,20.30
2022-10-18T14:31:34.443Z,20.40
2022-10-18T14:34:02.477Z,20.40
2022-10-18T14:36:41.259Z,20.30
2022-10-18T14:39:22.314Z,20.30
2022-10-18T14:41:53.517Z,20.30
2022-10-18T14:44:30.244Z,20.20
2022-10-18T14:47:18.761Z,20.10
2022-10-18T14:49:46.605Z,19.90
2022-10-18T14:52:21.939Z,19.90
2022-10-18T14:54:51.002Z,19.90
2022-10-18T14:57:24.975Z,19.60
2022-10-18T14:59:58.501Z,19.70
2022-10-18T15:02:29.070Z,19.60
2022-10-18T15:05:21.815Z,19.60
2022-10-18T15:07:51.372Z,19.50
2022-10-18T15:10:32.103Z,19.40
2022-10-18T15:13:11.095Z,19.30
2022-10-18T15:15:39.527Z,19.30
2022-10-18T15:18:08.311Z,19.30
2022-10-18T15:20:42.206Z,19.30
2022-10-18T15:23:32.431Z,19.30
2022-10-18T15:26:11.447Z,19.30
2022-10-18T15:28:51.448Z,19.30
2022-10-18T15:31:31.522Z,19.30
2022-10-18T15:34:23.340Z,19.30
2022-10-18T15:36:52.778Z,19.20
2022-10-18T15:39:23.839Z,19.20
2022-10-18T15:41:57.528Z,19.30
2022-10-18T15:44:51.172Z,19.20
2022-10-18T15:47:21.624Z,19.20
2022-10-18T15:49:56.907Z,19.10
2022-10-18T15:52:43.302Z,19.10
2022-10-18T15:55:33.272Z,19.00
2022-10-18T15:58:47.712Z,19.00
2022-10-18T16:01:36.938Z,19.00
2022-10-18T16:04:32.530Z,18.90
2022-10-18T16:07:00.192Z,18.80
2022-10-18T16:09:29.943Z,17.70
2022-10-18T16:11:58.319Z,18.70
2022-10-18T16:14:26.593Z,18.60
2022-10-18T16:17:00.647Z,18.60
2022-10-18T16:19:27.923Z,18.60
2022-10-18T16:21:55.303Z,18.50
2022-10-18T16:24:22.940Z,18.50
2022-10-18T16:26:50.093Z,18.40
2022-10-18T16:29:24.194Z,18.40
2022-10-18T16:31:53.707Z,18.30
2022-10-18T16:34:20.501Z,18.30
2022-10-18T16:36:47.287Z,18.20
2022-10-18T16:39:20.941Z,18.20
2022-10-18T16:41:48.394Z,18.20
2022-10-18T16:44:16.741Z,18.10
2022-10-18T16:46:43.954Z,18.10
2022-10-18T16:49:24.439Z,18.10
2022-10-18T16:51:53.858Z,18.00
2022-10-18T16:54:21.102Z,17.90
2022-10-18T16:56:49.888Z,17.90
2022-10-18T16:59:31.707Z,17.80
2022-10-18T17:01:58.605Z,17.80
2022-10-18T17:04:25.462Z,17.80
2022-10-18T17:06:55.754Z,17.70
2022-10-18T17:09:22.556Z,17.70
2022-10-18T17:11:50.175Z,17.60
2022-10-18T17:14:16.948Z,17.60
2022-10-18T17:16:45.631Z,17.60
2022-10-18T17:19:15.560Z,17.50
2022-10-18T17:21:42.398Z,17.50
2022-10-18T17:24:09.253Z,17.50
2022-10-18T17:26:36.213Z,17.40
2022-10-18T17:29:08.273Z,17.30
2022-10-18T17:31:35.718Z,17.30
2022-10-18T17:34:03.104Z,17.40
2022-10-18T17:36:33.283Z,17.30
2022-10-18T17:39:00.286Z,17.30
2022-10-18T17:41:27.552Z,17.30
2022-10-18T17:43:54.430Z,17.30
2022-10-18T17:46:21.293Z,17.20
2022-10-18T17:48:48.070Z,17.20
2022-10-18T17:51:17.404Z,17.20
2022-10-18T17:53:44.724Z,17.10
2022-10-18T17:56:13.191Z,17.10
2022-10-18T17:58:43.194Z,17.10
2022-10-18T18:01:20.051Z,17.10
2022-10-18T18:03:50.087Z,17.10
2022-10-18T18:06:34.095Z,17.00
2022-10-18T18:09:04.982Z,19.00
2022-10-18T18:11:31.741Z,17.00
2022-10-18T18:13:59.465Z,16.80
2022-10-18T18:16:29.727Z,16.90
2022-10-18T18:18:58.803Z,16.90
2022-10-18T18:21:26.805Z,16.90
2022-10-18T18:23:54.597Z,16.90
2022-10-18T18:26:22.417Z,16.90
2022-10-18T18:28:49.387Z,16.80
2022-10-18T18:31:23.532Z,16.80
2022-10-18T18:33:56.214Z,16.80
2022-10-18T18:36:29.038Z,16.80
2022-10-18T18:38:57.775Z,16.80
2022-10-18T18:41:27.163Z,16.80
2022-10-18T18:44:00.455Z,16.80
2022-10-18T18:46:32.961Z,16.80
2022-10-18T18:48:59.904Z,16.80
2022-10-18T18:51:26.866Z,16.80
2022-10-18T18:53:54.337Z,16.70
2022-10-18T18:56:24.778Z,16.70
2022-10-18T18:58:53.631Z,16.40
2022-10-18T19:01:27.086Z,16.70
2022-10-18T19:03:56.925Z,16.70
2022-10-18T19:06:26.417Z,16.70
2022-10-18T19:09:00.149Z,16.70
2022-10-18T19:11:32.312Z,16.70
2022-10-18T19:14:00.579Z,16.80
2022-10-18T19:16:37.475Z,16.70
2022-10-18T19:19:15.602Z,16.60
2022-10-18T19:21:55.196Z,16.60
2022-10-18T19:24:24.691Z,16.60
2022-10-18T19:27:05.119Z,16.60
2022-10-18T19:29:36.259Z,16.60
2022-10-18T19:32:08.353Z,16.60
2022-10-18T19:34:35.643Z,16.50
2022-10-18T19:37:03.598Z,16.60
2022-10-18T19:39:34.559Z,16.50
2022-10-18T19:42:05.505Z,16.40
2022-10-18T19:44:35.822Z,16.40
2022-10-18T19:47:07.112Z,16.50
2022-10-18T19:49:33.924Z,16.40
2022-10-18T19:52:00.642Z,16.40
2022-10-18T19:54:27.543Z,16.40
2022-10-18T19:56:54.572Z,16.40
2022-10-18T19:59:22.816Z,15.00
2022-10-18T20:01:49.844Z,16.30
2022-10-18T20:04:17.194Z,16.30
2022-10-18T20:06:44.169Z,16.30
2022-10-18T20:09:16.093Z,16.20
2022-10-18T20:11:46.246Z,16.20
2022-10-18T20:14:12.990Z,16.20
2022-10-18T20:16:39.780Z,16.20
2022-10-18T20:19:07.692Z,16.10
2022-10-18T20:21:35.937Z,16.10
2022-10-18T20:24:04.685Z,16.10
2022-10-18T20:26:32.216Z,16.10
2022-10-18T20:28:59.947Z,16.00
2022-10-18T20:31:34.627Z,16.00
2022-10-18T20:34:05.024Z,16.00
2022-10-18T20:36:33.330Z,15.90
2022-10-18T20:39:00.914Z,15.90
2022-10-18T20:41:40.901Z,15.90
2022-10-18T20:44:17.046Z,15.80
2022-10-18T20:46:44.477Z,15.90
2022-10-18T20:49:16.229Z,15.80
2022-10-18T20:51:43.019Z,15.80
2022-10-18T20:54:10.762Z,15.80
2022-10-18T20:56:38.997Z,15.80
2022-10-18T20:59:09.687Z,15.70
2022-10-18T21:04:08.502Z,15.70
2022-10-18T21:06:40.977Z,15.70
2022-10-18T21:09:15.901Z,15.70
2022-10-18T21:11:49.375Z,15.60
2022-10-18T21:14:20.149Z,15.60
2022-10-18T21:16:48.493Z,15.60
2022-10-18T21:19:18.318Z,15.60
2022-10-18T21:21:49.863Z,15.50
2022-10-18T21:24:18.277Z,15.50
2022-10-18T21:26:45.481Z,15.50
2022-10-18T21:29:12.813Z,15.50
2022-10-18T21:31:42.739Z,15.50
2022-10-18T21:34:17.475Z,15.40
2022-10-18T21:36:46.913Z,15.40
2022-10-18T21:39:18.745Z,15.40
2022-10-18T21:41:46.162Z,15.40
2022-10-18T21:44:13.988Z,15.30
2022-10-18T21:46:43.035Z,15.30
2022-10-18T21:49:10.343Z,15.30
2022-10-18T21:51:37.186Z,15.30
2022-10-18T21:54:04.412Z,15.20
2022-10-18T21:56:34.302Z,14.80
2022-10-18T21:59:02.089Z,15.20
2022-10-18T22:01:34.893Z,17.60
2022-10-18T22:04:06.101Z,15.20
2022-10-18T22:09:10.061Z,15.10
2022-10-18T22:11:44.857Z,15.10
2022-10-18T22:14:11.917Z,15.10
2022-10-18T22:16:38.667Z,15.10
2022-10-18T22:19:06.627Z,15.10
2022-10-18T22:21:34.269Z,15.00
2022-10-18T22:24:06.525Z,15.10
2022-10-18T22:26:37.787Z,15.10
2022-10-18T22:29:18.389Z,15.10
2022-10-18T22:31:51.126Z,15.10
2022-10-18T22:34:22.519Z,15.10
2022-10-18T22:36:49.886Z,15.10
2022-10-18T22:39:17.582Z,15.10
2022-10-18T22:41:45.187Z,15.20
2022-10-18T22:44:14.122Z,15.20
2022-10-18T22:46:41.941Z,15.20
2022-10-18T22:49:08.886Z,15.20
2022-10-18T22:54:07.902Z,15.30
2022-10-18T22:56:34.900Z,15.30
2022-10-18T22:59:01.632Z,15.30
2022-10-18T23:01:28.390Z,15.30
2022-10-18T23:03:59.885Z,15.40
2022-10-18T23:06:31.683Z,15.40
2022-10-18T23:09:01.403Z,15.50
2022-10-18T23:11:29.227Z,15.50
2022-10-18T23:13:56.070Z,15.60
2022-10-18T23:16:23.437Z,15.50
2022-10-18T23:18:56.053Z,15.50
2022-10-18T23:21:25.263Z,15.50
2022-10-18T23:23:53.822Z,15.60
2022-10-18T23:26:24.577Z,15.60
2022-10-18T23:28:53.642Z,15.60
2022-10-18T23:31:29.025Z,15.60
2022-10-18T23:34:00.246Z,15.70
2022-10-18T23:36:27.835Z,15.70
2022-10-18T23:38:55.431Z,15.70
2022-10-18T23:41:22.721Z,15.70
2022-10-18T23:43:50.207Z,15.60
2022-10-18T23:46:18.557Z,15.70
2022-10-18T23:48:46.069Z,15.80
2022-10-18T23:51:13.777Z,15.80
2022-10-18T23:53:40.542Z,15.80
2022-10-18T23:56:11.855Z,15.80
2022-10-18T23:58:39.341Z,15.80
